createdAt,value
2019-05-03T00:01:48.251Z,79.08
2019-05-03T00:04:19.088Z,78.93
2019-05-03T00:06:52.021Z,78.77
2019-05-03T00:09:22.675Z,79.21
2019-05-03T00:11:53.429Z,79.30
2019-05-03T00:14:24.106Z,79.18
2019-05-03T00:16:55.000Z,79.50
2019-05-03T00:19:25.764Z,79.67
2019-05-03T00:21:56.463Z,80.14
2019-05-03T00:24:27.251Z,79.74
2019-05-03T00:26:57.929Z,79.89
2019-05-03T00:29:28.665Z,80.02
2019-05-03T00:31:59.398Z,80.35
2019-05-03T00:34:35.298Z,78.80
2019-05-03T00:37:09.340Z,79.08
2019-05-03T00:39:52.392Z,79.40
2019-05-03T00:42:23.119Z,79.45
2019-05-03T00:44:53.819Z,79.38
2019-05-03T00:47:24.504Z,79.44
2019-05-03T00:49:55.603Z,79.58
2019-05-03T00:52:26.359Z,79.85
2019-05-03T00:54:57.235Z,79.65
2019-05-03T00:57:32.110Z,78.64
2019-05-03T01:00:03.121Z,79.27
2019-05-03T01:02:35.034Z,79.47
2019-05-03T01:05:06.104Z,78.51
2019-05-03T01:07:37.063Z,79.13
2019-05-03T01:10:09.129Z,79.26
2019-05-03T01:12:41.630Z,79.51
2019-05-03T01:15:21.560Z,79.58
2019-05-03T01:17:52.578Z,79.81
2019-05-03T01:20:23.274Z,79.02
2019-05-03T01:22:53.915Z,79.12
2019-05-03T01:25:32.393Z,79.36
2019-05-03T01:27:56.911Z,79.84
2019-05-03T01:30:27.506Z,80.11
2019-05-03T01:32:58.566Z,79.91
2019-05-03T01:35:29.326Z,80.38
2019-05-03T01:38:02.049Z,80.41
2019-05-03T01:40:32.757Z,80.47
2019-05-03T01:43:03.575Z,80.74
2019-05-03T01:45:34.264Z,80.47
2019-05-03T01:48:21.705Z,80.36
2019-05-03T01:51:14.102Z,80.71
2019-05-03T01:53:44.973Z,80.68
2019-05-03T01:56:15.742Z,80.91
2019-05-03T01:58:46.349Z,81.09
2019-05-03T02:01:32.575Z,81.62
2019-05-03T02:04:24.933Z,81.57
2019-05-03T02:06:55.885Z,81.45
2019-05-03T02:09:26.629Z,80.92
2019-05-03T02:11:57.320Z,80.83
2019-05-03T02:14:28.002Z,81.04
2019-05-03T02:16:58.681Z,81.04
2019-05-03T02:19:29.438Z,81.06
2019-05-03T02:22:00.218Z,81.34
2019-05-03T02:24:32.762Z,81.42
2019-05-03T02:27:03.768Z,81.36
2019-05-03T02:29:34.518Z,81.11
2019-05-03T02:32:05.243Z,81.14
2019-05-03T02:34:35.968Z,81.15
2019-05-03T02:37:06.741Z,80.75
2019-05-03T02:39:37.521Z,81.10
2019-05-03T02:42:11.736Z,81.14
2019-05-03T02:44:41.296Z,81.55
2019-05-03T02:47:29.627Z,81.42
2019-05-03T02:50:05.814Z,81.66
2019-05-03T02:52:37.717Z,82.04
2019-05-03T02:55:11.526Z,81.77
2019-05-03T02:57:42.472Z,81.79
2019-05-03T03:00:16.339Z,81.81
2019-05-03T03:02:47.910Z,81.92
2019-05-03T03:05:18.667Z,81.64
2019-05-03T03:07:52.105Z,82.06
2019-05-03T03:10:22.805Z,81.79
2019-05-03T03:12:55.588Z,81.99
2019-05-03T03:15:28.743Z,82.05
2019-05-03T03:18:01.517Z,82.25
2019-05-03T03:20:35.723Z,82.02
2019-05-03T03:23:09.270Z,81.67
2019-05-03T03:25:42.946Z,81.71
2019-05-03T03:28:17.617Z,81.79
2019-05-03T03:31:28.177Z,81.55
2019-05-03T03:33:59.973Z,81.78
2019-05-03T03:36:53.281Z,81.33
2019-05-03T03:39:06.048Z,81.62
2019-05-03T03:41:37.207Z,81.59
2019-05-03T03:44:08.322Z,82.23
2019-05-03T03:46:40.698Z,81.89
2019-05-03T03:49:15.522Z,81.58
2019-05-03T03:51:49.498Z,82.04
2019-05-03T03:54:21.138Z,82.03
2019-05-03T03:57:03.335Z,81.75
2019-05-03T03:59:27.885Z,81.72
2019-05-03T04:01:58.680Z,82.25
2019-05-03T04:04:29.748Z,82.54
2019-05-03T04:07:01.518Z,82.69
2019-05-03T04:09:32.682Z,82.26
2019-05-03T04:12:06.043Z,82.24
2019-05-03T04:15:05.663Z,82.17
2019-05-03T04:17:58.272Z,82.27
2019-05-03T04:20:35.826Z,82.20
2019-05-03T04:23:07.129Z,82.67
2019-05-03T04:25:38.129Z,83.15
2019-05-03T04:28:09.751Z,82.10
2019-05-03T04:30:40.552Z,82.03
2019-05-03T04:33:11.344Z,82.09
2019-05-03T04:35:42.129Z,82.03
2019-05-03T04:38:16.026Z,82.03
2019-05-03T04:40:45.612Z,80.90
2019-05-03T04:43:16.750Z,81.55
2019-05-03T04:46:06.246Z,81.61
2019-05-03T04:48:36.707Z,81.54
2019-05-03T04:51:07.514Z,82.01
2019-05-03T04:53:40.707Z,81.77
2019-05-03T04:56:11.691Z,81.58
2019-05-03T04:58:45.677Z,81.67
2019-05-03T05:01:15.864Z,81.74
2019-05-03T05:03:46.821Z,81.65
2019-05-03T05:06:17.581Z,82.02
2019-05-03T05:08:48.536Z,81.77
2019-05-03T05:11:19.197Z,81.83
2019-05-03T05:13:50.001Z,81.46
2019-05-03T05:16:20.796Z,81.80
2019-05-03T05:18:56.054Z,81.93
2019-05-03T05:21:44.693Z,82.05
2019-05-03T05:24:15.258Z,81.62
2019-05-03T05:26:55.021Z,81.83
2019-05-03T05:29:28.026Z,81.22
2019-05-03T05:31:59.064Z,81.40
2019-05-03T05:34:29.986Z,81.53
2019-05-03T05:37:00.662Z,81.74
2019-05-03T05:39:31.263Z,82.21
2019-05-03T05:42:01.929Z,81.86
2019-05-03T05:44:32.721Z,82.04
2019-05-03T05:47:09.957Z,82.29
2019-05-03T05:49:59.646Z,82.21
2019-05-03T05:52:30.493Z,81.92
2019-05-03T05:55:25.146Z,81.79
2019-05-03T05:58:07.527Z,81.63
2019-05-03T06:00:44.871Z,81.89
2019-05-03T06:03:15.447Z,81.68
2019-05-03T06:05:46.358Z,81.19
2019-05-03T06:08:38.770Z,81.16
2019-05-03T06:11:20.823Z,81.72
2019-05-03T06:13:58.599Z,81.83
2019-05-03T06:16:38.226Z,82.09
2019-05-03T06:19:16.003Z,82.06
2019-05-03T06:22:05.614Z,82.03
2019-05-03T06:24:45.245Z,81.67
2019-05-03T06:27:30.292Z,81.41
2019-05-03T06:30:06.944Z,81.42
2019-05-03T06:32:39.542Z,81.45
2019-05-03T06:35:10.595Z,81.23
2019-05-03T06:37:45.849Z,81.92
2019-05-03T06:40:18.003Z,81.85
2019-05-03T06:42:54.553Z,82.25
2019-05-03T06:45:21.618Z,82.62
2019-05-03T06:47:52.443Z,82.14
2019-05-03T06:50:25.200Z,82.41
2019-05-03T06:52:59.905Z,82.84
2019-05-03T06:55:28.897Z,83.07
2019-05-03T06:57:59.576Z,82.59
2019-05-03T07:00:49.103Z,82.42
2019-05-03T07:03:39.971Z,81.66
2019-05-03T07:06:33.579Z,81.43
2019-05-03T07:09:05.362Z,81.56
2019-05-03T07:11:36.430Z,81.54
2019-05-03T07:14:07.199Z,81.48
2019-05-03T07:16:37.995Z,81.01
2019-05-03T07:19:08.677Z,81.06
2019-05-03T07:21:39.357Z,81.08
2019-05-03T07:24:10.099Z,80.83
2019-05-03T07:26:40.932Z,80.66
2019-05-03T07:29:11.667Z,81.20
2019-05-03T07:31:44.550Z,80.48
2019-05-03T07:34:15.603Z,80.87
2019-05-03T07:36:46.780Z,80.44
2019-05-03T07:39:17.773Z,81.47
2019-05-03T07:41:48.521Z,80.15
2019-05-03T07:44:19.305Z,78.64
2019-05-03T07:46:50.031Z,79.13
2019-05-03T07:49:20.722Z,79.44
2019-05-03T07:51:51.567Z,79.92
2019-05-03T07:54:22.285Z,79.27
2019-05-03T07:56:58.372Z,78.97
2019-05-03T07:59:29.074Z,78.41
2019-05-03T08:01:59.749Z,78.04
2019-05-03T08:04:30.420Z,77.69
2019-05-03T08:07:01.108Z,76.85
2019-05-03T08:09:31.814Z,77.49
2019-05-03T08:12:04.912Z,76.91
2019-05-03T08:14:35.719Z,77.04
2019-05-03T08:17:06.562Z,76.51
2019-05-03T08:19:37.315Z,78.26
2019-05-03T08:22:08.146Z,78.52
2019-05-03T08:24:39.061Z,78.57
2019-05-03T08:27:09.703Z,77.97
2019-05-03T08:29:41.520Z,78.66
2019-05-03T08:32:44.546Z,78.77
2019-05-03T08:35:32.922Z,78.21
2019-05-03T08:38:04.945Z,78.80
2019-05-03T08:40:41.496Z,78.21
2019-05-03T08:43:12.234Z,78.56
2019-05-03T08:45:44.747Z,77.98
2019-05-03T08:48:15.697Z,77.26
2019-05-03T08:50:46.551Z,77.80
2019-05-03T08:53:17.363Z,77.65
2019-05-03T08:55:48.033Z,77.43
2019-05-03T08:58:18.982Z,76.42
2019-05-03T09:00:50.131Z,76.51
2019-05-03T09:03:20.706Z,76.21
2019-05-03T09:05:51.966Z,76.26
2019-05-03T09:08:24.814Z,77.33
2019-05-03T09:10:59.139Z,76.77
2019-05-03T09:13:46.511Z,76.23
2019-05-03T09:16:18.449Z,75.98
2019-05-03T09:18:49.702Z,76.25
2019-05-03T09:21:20.414Z,76.27
2019-05-03T09:23:51.210Z,75.99
2019-05-03T09:26:21.986Z,75.00
2019-05-03T09:28:52.659Z,74.81
2019-05-03T09:31:24.666Z,74.76
2019-05-03T09:33:56.474Z,72.54
2019-05-03T09:36:27.318Z,72.85
2019-05-03T09:38:58.109Z,75.08
2019-05-03T09:41:29.063Z,74.62
2019-05-03T09:44:00.506Z,73.42
2019-05-03T09:46:31.473Z,72.48
2019-05-03T09:49:12.607Z,72.50
2019-05-03T09:51:35.096Z,73.87
2019-05-03T09:54:14.719Z,74.03
2019-05-03T09:56:58.689Z,73.06
2019-05-03T09:59:31.974Z,71.80
2019-05-03T10:02:04.777Z,73.24
2019-05-03T10:04:36.937Z,72.71
2019-05-03T10:07:07.686Z,70.36
2019-05-03T10:09:38.455Z,71.89
2019-05-03T10:12:13.356Z,71.96
2019-05-03T10:14:45.243Z,72.10
2019-05-03T10:17:51.159Z,70.73
2019-05-03T10:20:25.188Z,72.02
2019-05-03T10:22:59.384Z,72.13
2019-05-03T10:25:30.035Z,71.41
2019-05-03T10:28:00.915Z,71.16
2019-05-03T10:30:31.702Z,70.91
2019-05-03T10:33:15.855Z,68.79
2019-05-03T10:35:47.659Z,66.03
2019-05-03T10:38:18.690Z,71.12
2019-05-03T10:40:49.392Z,70.69
2019-05-03T10:43:20.126Z,68.65
2019-05-03T10:45:51.249Z,69.75
2019-05-03T10:48:22.256Z,68.58
2019-05-03T10:50:53.495Z,69.37
2019-05-03T10:53:28.746Z,65.96
2019-05-03T10:56:23.393Z,64.07
2019-05-03T10:58:58.087Z,65.14
2019-05-03T11:01:50.435Z,66.26
2019-05-03T11:04:21.265Z,66.84
2019-05-03T11:06:52.158Z,66.16
2019-05-03T11:09:22.926Z,66.19
2019-05-03T11:11:55.535Z,66.03
2019-05-03T11:14:26.650Z,67.11
2019-05-03T11:17:00.652Z,64.01
2019-05-03T11:19:31.887Z,63.83
2019-05-03T11:22:02.813Z,66.56
2019-05-03T11:24:34.832Z,65.05
2019-05-03T11:27:12.177Z,64.19
2019-05-03T11:29:45.078Z,61.21
2019-05-03T11:32:31.506Z,62.42
2019-05-03T11:35:11.556Z,60.65
2019-05-03T11:37:48.242Z,59.58
2019-05-03T11:40:19.518Z,56.62
2019-05-03T11:42:51.291Z,56.64
2019-05-03T11:45:22.130Z,56.72
2019-05-03T11:47:54.953Z,58.49
2019-05-03T11:50:25.713Z,56.82
2019-05-03T11:52:56.470Z,57.29
2019-05-03T11:55:27.140Z,55.58
2019-05-03T11:57:57.840Z,56.73
2019-05-03T12:00:35.515Z,58.86
2019-05-03T12:03:15.573Z,57.98
2019-05-03T12:05:49.998Z,56.88
2019-05-03T12:08:20.645Z,54.22
2019-05-03T12:10:57.965Z,55.42
2019-05-03T12:13:33.166Z,55.83
2019-05-03T12:16:14.432Z,59.36
2019-05-03T12:18:49.311Z,52.76
2019-05-03T12:21:10.753Z,54.04
2019-05-03T12:23:42.684Z,57.42
2019-05-03T12:26:17.120Z,53.10
2019-05-03T12:28:46.747Z,54.82
2019-05-03T12:31:28.241Z,52.81
2019-05-03T12:33:50.030Z,50.78
2019-05-03T12:36:20.758Z,54.47
2019-05-03T12:38:51.557Z,50.38
2019-05-03T12:41:22.226Z,49.58
2019-05-03T12:43:55.032Z,52.30
2019-05-03T12:46:26.202Z,52.99
2019-05-03T12:48:57.257Z,52.92
2019-05-03T12:51:28.162Z,49.31
2019-05-03T12:53:59.009Z,49.40
2019-05-03T12:56:32.662Z,51.97
2019-05-03T12:59:07.485Z,51.77
2019-05-03T13:01:57.463Z,53.26
2019-05-03T13:04:31.323Z,48.93
2019-05-03T13:07:11.219Z,48.56
2019-05-03T13:09:42.118Z,49.94
2019-05-03T13:12:14.795Z,46.40
2019-05-03T13:14:45.635Z,47.49
2019-05-03T13:17:18.838Z,50.41
2019-05-03T13:19:49.555Z,50.43
2019-05-03T13:22:20.179Z,48.89
2019-05-03T13:24:50.762Z,47.12
2019-05-03T13:27:21.461Z,48.36
2019-05-03T13:29:52.178Z,49.92
2019-05-03T13:32:22.858Z,48.50
2019-05-03T13:34:55.259Z,48.96
2019-05-03T13:37:25.916Z,46.21
2019-05-03T13:39:56.639Z,47.43
2019-05-03T13:42:27.282Z,49.34
2019-05-03T13:44:57.846Z,47.54
2019-05-03T13:47:28.480Z,47.05
2019-05-03T13:49:59.318Z,47.79
2019-05-03T13:52:30.311Z,47.18
2019-05-03T13:55:01.583Z,47.53
2019-05-03T13:57:35.239Z,48.59
2019-05-03T14:00:26.670Z,46.47
2019-05-03T14:02:57.356Z,47.28
2019-05-03T14:05:28.021Z,48.90
2019-05-03T14:07:58.829Z,49.66
2019-05-03T14:10:30.730Z,48.85
2019-05-03T14:13:01.623Z,48.85
2019-05-03T14:15:34.623Z,49.73
2019-05-03T14:18:06.205Z,48.73
2019-05-03T14:21:01.967Z,47.85
2019-05-03T14:23:37.158Z,45.98
2019-05-03T14:26:08.055Z,46.69
2019-05-03T14:28:38.758Z,45.47
2019-05-03T14:31:09.406Z,44.85
2019-05-03T14:33:40.056Z,43.35
2019-05-03T14:36:10.834Z,42.62
2019-05-03T14:38:41.691Z,44.93
2019-05-03T14:41:14.940Z,42.19
2019-05-03T14:43:45.104Z,41.61
2019-05-03T14:46:29.317Z,41.25
2019-05-03T14:48:48.458Z,41.69
2019-05-03T14:51:19.334Z,39.87
2019-05-03T14:53:50.236Z,41.45
2019-05-03T14:56:27.151Z,44.85
2019-05-03T14:59:29.007Z,44.50
2019-05-03T15:02:06.130Z,46.36
2019-05-03T15:04:36.790Z,45.92
2019-05-03T15:07:07.858Z,44.89
2019-05-03T15:09:38.864Z,47.00
2019-05-03T15:12:09.642Z,43.15
2019-05-03T15:14:40.350Z,44.25
2019-05-03T15:17:10.936Z,46.68
2019-05-03T15:19:41.776Z,46.54
2019-05-03T15:22:15.088Z,45.95
2019-05-03T15:24:45.702Z,47.89
2019-05-03T15:27:18.752Z,46.82
2019-05-03T15:29:50.063Z,43.69
2019-05-03T15:32:20.942Z,45.23
2019-05-03T15:34:51.637Z,41.21
2019-05-03T15:37:22.466Z,42.43
2019-05-03T15:39:54.644Z,41.04
2019-05-03T15:42:26.586Z,45.57
2019-05-03T15:45:14.889Z,43.41
2019-05-03T15:48:15.144Z,43.01
2019-05-03T15:50:45.908Z,44.36
2019-05-03T15:53:16.580Z,47.79
2019-05-03T16:04:04.820Z,48.97
2019-05-03T16:06:35.605Z,47.83
2019-05-03T16:09:07.877Z,47.58
2019-05-03T16:11:39.412Z,47.77
2019-05-03T16:14:10.115Z,48.08
2019-05-03T16:16:40.878Z,52.31
2019-05-03T16:19:11.703Z,50.44
2019-05-03T16:21:42.445Z,49.48
2019-05-03T16:24:13.167Z,55.53
2019-05-03T16:27:01.646Z,52.26
2019-05-03T16:29:33.277Z,52.31
2019-05-03T16:32:05.211Z,51.37
2019-05-03T16:34:36.076Z,51.49
2019-05-03T16:37:06.954Z,52.37
2019-05-03T16:39:37.648Z,51.91
2019-05-03T16:42:09.923Z,54.20
2019-05-03T16:44:40.674Z,53.74
2019-05-03T16:47:11.478Z,55.86
2019-05-03T16:49:42.083Z,56.70
2019-05-03T16:52:14.695Z,58.24
2019-05-03T16:54:45.433Z,59.53
2019-05-03T16:57:17.583Z,60.39
2019-05-03T16:59:48.848Z,60.81
2019-05-03T17:02:19.579Z,61.46
2019-05-03T17:04:56.355Z,60.25
2019-05-03T17:07:32.623Z,61.16
2019-05-03T17:10:15.303Z,61.50
2019-05-03T17:12:46.264Z,62.28
2019-05-03T17:15:17.467Z,61.81
2019-05-03T17:17:48.275Z,60.89
2019-05-03T17:20:19.089Z,61.24
2019-05-03T17:22:49.849Z,60.62
2019-05-03T17:25:20.646Z,55.79
2019-05-03T17:27:51.318Z,52.74
2019-05-03T17:30:22.281Z,53.46
2019-05-03T17:32:55.005Z,52.34
2019-05-03T17:35:25.604Z,52.75
2019-05-03T17:37:56.383Z,55.42
2019-05-03T17:40:45.545Z,56.57
2019-05-03T17:43:29.713Z,58.71
2019-05-03T17:46:00.754Z,60.90
2019-05-03T17:48:31.822Z,63.57
2019-05-03T17:51:04.439Z,62.54
2019-05-03T17:53:54.816Z,63.15
2019-05-03T17:56:35.063Z,60.79
2019-05-03T17:59:15.191Z,59.45
2019-05-03T18:02:23.739Z,60.12
2019-05-03T18:05:16.751Z,60.75
2019-05-03T18:08:09.119Z,62.84
2019-05-03T18:10:41.332Z,62.28
2019-05-03T18:13:12.065Z,63.19
2019-05-03T18:15:44.839Z,63.33
2019-05-03T18:18:15.747Z,62.88
2019-05-03T18:20:46.654Z,64.24
2019-05-03T18:23:17.325Z,63.66
2019-05-03T18:25:48.278Z,62.96
2019-05-03T18:28:19.031Z,63.78
2019-05-03T18:30:49.766Z,65.33
2019-05-03T18:33:20.714Z,66.65
2019-05-03T18:35:51.438Z,67.73
2019-05-03T18:38:25.220Z,68.52
2019-05-03T18:40:56.048Z,69.64
2019-05-03T18:43:41.558Z,70.63
2019-05-03T18:46:25.058Z,70.66
2019-05-03T18:48:55.761Z,71.22
2019-05-03T18:51:26.524Z,70.62
2019-05-03T18:53:57.667Z,71.49
2019-05-03T18:56:29.430Z,71.91
2019-05-03T18:59:00.173Z,72.14
2019-05-03T19:01:30.895Z,72.31
2019-05-03T19:04:16.658Z,72.44
2019-05-03T19:06:47.452Z,72.89
2019-05-03T19:09:49.285Z,72.61
2019-05-03T19:12:38.872Z,72.34
2019-05-03T19:15:10.606Z,72.85
2019-05-03T19:17:58.694Z,72.30
2019-05-03T19:20:29.422Z,71.67
2019-05-03T19:23:00.355Z,71.92
2019-05-03T19:25:43.338Z,70.97
2019-05-03T19:28:06.022Z,71.52
2019-05-03T19:30:37.859Z,71.00
2019-05-03T19:33:08.448Z,71.17
2019-05-03T19:35:39.281Z,71.20
2019-05-03T19:38:10.090Z,70.58
2019-05-03T19:40:40.864Z,70.31
2019-05-03T19:43:11.657Z,70.91
2019-05-03T19:45:42.388Z,71.18
2019-05-03T19:48:14.721Z,72.04
2019-05-03T19:50:45.302Z,71.07
2019-05-03T19:53:23.714Z,71.56
2019-05-03T19:55:55.319Z,71.78
2019-05-03T19:58:25.991Z,73.30
2019-05-03T20:01:11.106Z,72.48
2019-05-03T20:03:48.630Z,72.30
2019-05-03T20:06:45.093Z,71.78
2019-05-03T20:09:17.452Z,72.21
2019-05-03T20:11:48.097Z,72.48
2019-05-03T20:14:18.764Z,72.15
2019-05-03T20:16:49.567Z,72.92
2019-05-03T20:19:21.283Z,73.48
2019-05-03T20:21:54.261Z,73.46
2019-05-03T20:24:25.319Z,73.62
2019-05-03T20:26:56.185Z,73.44
2019-05-03T20:29:26.751Z,73.38
2019-05-03T20:31:57.695Z,73.10
2019-05-03T20:34:28.296Z,73.64
2019-05-03T20:36:59.152Z,74.04
2019-05-03T20:39:29.927Z,74.50
2019-05-03T20:42:00.756Z,74.61
2019-05-03T20:45:06.507Z,74.78
2019-05-03T20:47:41.686Z,74.57
2019-05-03T20:50:17.422Z,74.71
2019-05-03T20:52:48.310Z,74.09
2019-05-03T20:55:19.148Z,74.99
2019-05-03T20:57:49.991Z,74.30
2019-05-03T21:00:22.988Z,74.25
2019-05-03T21:02:56.940Z,74.10
2019-05-03T21:05:30.995Z,74.46
2019-05-03T21:07:58.416Z,75.26
2019-05-03T21:10:29.078Z,74.96
2019-05-03T21:12:59.779Z,74.35
2019-05-03T21:15:40.091Z,74.69
2019-05-03T21:18:34.378Z,75.42
2019-05-03T21:21:16.114Z,76.09
2019-05-03T21:23:50.543Z,75.47
2019-05-03T21:26:21.312Z,75.26
2019-05-03T21:28:51.997Z,75.47
2019-05-03T21:31:24.509Z,75.28
2019-05-03T21:33:55.481Z,76.59
2019-05-03T21:36:26.237Z,77.09
2019-05-03T21:38:56.846Z,76.61
2019-05-03T21:41:27.515Z,76.89
2019-05-03T21:43:58.139Z,76.76
2019-05-03T21:46:35.330Z,76.73
2019-05-03T21:49:25.365Z,76.75
2019-05-03T21:51:56.022Z,76.37
2019-05-03T21:54:26.906Z,76.85
2019-05-03T21:56:58.022Z,76.86
2019-05-03T21:59:28.797Z,76.78
2019-05-03T22:01:59.741Z,77.89
2019-05-03T22:04:30.537Z,77.86
2019-05-03T22:07:02.230Z,77.79
2019-05-03T22:09:34.838Z,77.64
2019-05-03T22:12:05.621Z,77.43
2019-05-03T22:14:42.153Z,77.50
2019-05-03T22:17:30.642Z,78.01
2019-05-03T22:20:13.149Z,78.37
2019-05-03T22:22:55.300Z,78.76
2019-05-03T22:25:28.813Z,78.32
2019-05-03T22:27:59.630Z,78.08
2019-05-03T22:30:30.374Z,78.28
2019-05-03T22:33:01.175Z,78.53
2019-05-03T22:35:32.014Z,78.12
2019-05-03T22:38:04.540Z,77.70
2019-05-03T22:40:35.460Z,77.79
2019-05-03T22:43:07.215Z,77.79
2019-05-03T22:45:38.267Z,77.76
2019-05-03T22:48:09.028Z,77.75
2019-05-03T22:50:39.797Z,77.24
2019-05-03T22:53:10.742Z,77.22
2019-05-03T22:55:41.433Z,77.43
2019-05-03T22:58:12.099Z,78.04
2019-05-03T23:00:44.492Z,78.14
2019-05-03T23:03:16.911Z,77.96
2019-05-03T23:05:47.608Z,77.95
2019-05-03T23:08:18.498Z,78.49
2019-05-03T23:10:49.178Z,78.77
2019-05-03T23:13:19.856Z,78.52
2019-05-03T23:15:50.543Z,78.39
2019-05-03T23:18:21.345Z,78.61
2019-05-03T23:20:58.615Z,78.90
2019-05-03T23:23:47.293Z,78.69
2019-05-03T23:26:18.161Z,78.35
2019-05-03T23:28:49.203Z,78.36
2019-05-03T23:31:19.882Z,78.28
2019-05-03T23:33:50.633Z,78.11
2019-05-03T23:36:32.808Z,78.31
2019-05-03T23:38:54.643Z,78.15
2019-05-03T23:41:25.563Z,77.99
2019-05-03T23:43:56.166Z,77.68
2019-05-03T23:46:34.825Z,77.90
2019-05-03T23:49:05.641Z,78.02
2019-05-03T23:51:49.513Z,78.11
2019-05-03T23:54:20.431Z,78.04
2019-05-03T23:56:51.166Z,77.95
2019-05-03T23:59:21.715Z,77.60
